Time;durP1;ratioP1;P1;durP2;ratioP2;P2;SDS_P1;SDS_P2;PMS_P1;PMS_P2;Temp;Humidity;BMP_temperature;BMP_pressure;BME280_temperature;BME280_humidity;BME280_pressure;Samples;Min_cycle;Max_cycle;Signal;HPM_P1;HPM_P2
2023/01/14 10:44:59;;;;;;;;;;;;;;;;;;4944961;28;19954;-94
2023/01/14 10:47:26;;;;;;;;;;;;;;;;;;4921964;29;19919;-96
2023/01/14 10:49:54;;;;;;;;;;;;;;;;;;4937378;29;20002;-93
2023/01/14 10:52:42;;;;;;;;;;;;;;;;;;4929510;29;20005;-92
2023/01/14 10:55:10;;;;;;;;;;;;;;;;;;4848339;29;19916;-91
2023/01/14 10:57:38;;;;;;;;;;;;;;;;;;4846951;29;19920;-92
2023/01/14 11:00:04;;;;;;;;;;;;;;;;;;4846521;29;19922;-91
2023/01/14 11:02:39;;;;;;;;;;;;;;;;;;4848434;29;19955;-93
2023/01/14 11:05:06;;;;;;;;;;;;;;;;;;4860992;29;19916;-90
2023/01/14 11:07:37;;;;;;;;;;;;;;;;;;4845203;29;19916;-90
2023/01/14 11:10:19;;;;;;;;;;;;;;;;;;4847961;29;19920;-94
2023/01/14 11:12:44;;;;;;;;;;;;;;;;;;4847327;29;19916;-93
2023/01/14 11:15:28;;;;;;;;;;;;;;;;;;4854060;29;20422;-92
2023/01/14 11:17:53;;;;;;;;;;;;;;;;;;4871466;29;19984;-94
2023/01/14 11:20:23;;;;;;;;;;;;;;;;;;4845279;29;20395;-91
2023/01/14 11:22:56;;;;;;;;;;;;;;;;;;4848858;29;19920;-96
2023/01/14 11:25:22;;;;;;;;;;;;;;;;;;4853519;29;19912;-93
2023/01/14 11:27:48;;;;;;;;;;;;;;;;;;4848789;29;19916;-89
2023/01/14 11:30:14;;;;;;;;;;;;;;;;;;4848176;29;19919;-93
2023/01/14 11:32:40;;;;;;;;;;;;;;;;;;4898572;29;19975;-90
2023/01/14 11:35:15;;;;;;;;;;;;;;;;;;4921889;29;19954;-91
2023/01/14 11:37:45;;;;;;;;;;;;;;;;;;4921905;29;19915;-90
2023/01/14 11:40:21;;;;;;;;;;;;;;;;;;4923331;29;20429;-93
2023/01/14 11:42:47;;;;;;;;;;;;;;;;;;4923125;29;20006;-93
2023/01/14 11:45:12;;;;;;;;;;;;;;;;;;4922864;29;19958;-95
2023/01/14 11:47:47;;;;;;;;;;;;;;;;;;4920935;29;19954;-92
2023/01/14 11:50:12;;;;;;;;;;;;;;;;;;4920777;29;19915;-95
2023/01/14 11:52:38;;;;;;;;;;;;;;;;;;4920443;29;20384;-95
2023/01/14 11:55:03;;;;;;;;;;;;;;;;;;4920515;29;19922;-95
2023/01/14 11:57:28;;;;;;;;;;;;;;;;;;4920454;29;19918;-93
2023/01/14 11:59:54;;;;;;;;;;;;;;;;;;4920339;29;19915;-96
2023/01/14 12:02:38;;;;;;;;;;;;;;;;;;4921305;29;19962;-95
2023/01/14 12:05:15;;;;;;;;;;;;;;;;;;4920044;29;19921;-90
2023/01/14 12:07:43;;;;;;;;;;;;;;;;;;4921736;29;19921;-88
2023/01/14 12:10:27;;;;;;;;;;;;;;;;;;4920340;29;19915;-89
2023/01/14 12:18:45;;;;;;;;;;;;;;;;;;4920965;29;20315;-96
2023/01/14 12:21:12;;;;;;;;;;;;;;;;;;4921646;29;20377;-88
2023/01/14 12:23:47;;;;;;;;;;;;;;;;;;4919661;29;19915;-94
2023/01/14 12:26:19;;;;;;;;;;;;;;;;;;4920690;29;19915;-94
2023/01/14 12:28:47;;;;;;;;;;;;;;;;;;4921327;29;19982;-94
2023/01/14 12:31:33;;;;;;;;;;;;;;;;;;4919553;29;19915;-93
2023/01/14 12:34:08;;;;;;;;;;;;;;;;;;4915906;29;20393;-92
2023/01/14 12:36:49;;;;;;;;;;;;;;;;;;4920172;29;19990;-95
2023/01/14 12:47:34;;;;;;;;;;;;;;;;;;4917992;29;19970;-94
2023/01/14 12:50:01;;;;;;;;;;;;;;;;;;4917640;29;20005;-87
2023/01/14 12:52:32;;;;;;;;;;;;;;;;;;4918229;29;19922;-89
2023/01/14 12:54:58;;;;;;;;;;;;;;;;;;4917695;29;20318;-93
2023/01/14 12:57:24;;;;;;;;;;;;;;;;;;4918030;29;19922;-91
2023/01/14 12:59:55;;;;;;;;;;;;;;;;;;4918622;29;19981;-84
2023/01/14 13:02:20;;;;;;;;;;;;;;;;;;4919488;29;19923;-90
2023/01/14 13:04:48;;;;;;;;;;;;;;;;;;4919375;29;20031;-92
2023/01/14 13:07:21;;;;;;;;;;;;;;;;;;4918946;29;19915;-92
2023/01/14 13:09:48;;;;;;;;;;;;;;;;;;4919139;29;20479;-94
2023/01/14 13:12:23;;;;;;;;;;;;;;;;;;4918783;29;19961;-96
2023/01/14 13:14:52;;;;;;;;;;;;;;;;;;4918991;29;19919;-96
2023/01/14 13:17:31;;;;;;;;;;;;;;;;;;4918628;29;20377;-94
2023/01/14 13:19:57;;;;;;;;;;;;;;;;;;4919713;29;19916;-92
2023/01/14 13:22:38;;;;;;;;;;;;;;;;;;4920071;29;19914;-96
2023/01/14 13:25:08;;;;;;;;;;;;;;;;;;4919767;29;19919;-92
2023/01/14 13:27:34;;;;;;;;;;;;;;;;;;4918283;29;20263;-96
2023/01/14 13:30:17;;;;;;;;;;;;;;;;;;4918510;29;19922;-96
2023/01/14 13:33:01;;;;;;;;;;;;;;;;;;4918403;29;19915;-96
2023/01/14 13:35:31;;;;;;;;;;;;;;;;;;4918293;29;19915;-93
2023/01/14 13:37:57;;;;;;;;;;;;;;;;;;4918291;29;19922;-96
2023/01/14 13:40:24;;;;;;;;;;;;;;;;;;4919558;29;20001;-95
2023/01/14 13:43:08;;;;;;;;;;;;;;;;;;4918292;29;20034;-93
2023/01/14 13:45:34;;;;;;;;;;;;;;;;;;4917651;29;19919;-94
2023/01/14 13:48:13;;;;;;;;;;;;;;;;;;4921932;29;19919;-91
2023/01/14 13:50:40;;;;;;;;;;;;;;;;;;4922045;29;19911;-90
2023/01/14 13:53:20;;;;;;;;;;;;;;;;;;4919123;29;20358;-96
2023/01/14 13:56:03;;;;;;;;;;;;;;;;;;4919587;29;19922;-90
2023/01/14 13:58:46;;;;;;;8.10;5.10;;;;;;;;;;4918172;29;19950;-93
2023/01/14 14:01:48;;;;;;;16.88;9.45;;;;;;;;;;4918459;29;20482;-94
2023/01/14 14:04:13;;;;;;;;;;;;;;;;;;4898043;29;20108;-92
2023/01/14 14:06:41;;;;;;;;;;;;;;;;;;4909912;29;20358;-91
2023/01/14 14:09:23;;;;;;;;;;;;;;;;;;4917725;29;20001;-93
2023/01/14 14:12:10;;;;;;;;;;;;;;;;;;4917583;29;19922;-95
2023/01/14 14:14:42;;;;;;;;;;;;;;;;;;4917478;29;19915;-91
2023/01/14 14:17:26;;;;;;;;;;;;;;;;;;4917436;29;19915;-91
2023/01/14 14:19:56;;;;;;;;;;;;;;;;;;4918845;29;19915;-94
2023/01/14 14:22:25;;;;;;;;;;;;;;;;;;4917305;29;19919;-90
2023/01/14 14:24:54;;;;;;;;;;;;;;;;;;4918855;29;19919;-91
2023/01/14 14:27:31;;;;;;;;;;;;;;;;;;4917563;29;19923;-91
2023/01/14 14:30:02;;;;;;;;;;;;;;;;;;4918809;29;19919;-95
2023/01/14 14:32:28;;;;;;;;;;;;;;;;;;4917507;29;19943;-96
2023/01/14 14:35:06;;;;;;;;;;;;;;;;;;4918668;29;19965;-93
2023/01/14 14:37:34;;;;;;;;;;;;;;;;;;4918578;29;19962;-95
2023/01/14 14:40:00;;;;;;;;;;;;;;;;;;4917235;29;19923;-89
2023/01/14 14:42:25;;;;;;;;;;;;;;;;;;4916715;29;19919;-88
2023/01/14 14:44:57;;;;;;;;;;;;;;;;;;4918212;29;19977;-88
2023/01/14 14:47:22;;;;;;;;;;;;;;;;;;4918155;29;20392;-88
2023/01/14 14:49:48;;;;;;;;;;;;;;;;;;4918127;29;19919;-94
2023/01/14 14:52:19;;;;;;;;;;;;;;;;;;4916755;29;19930;-94
2023/01/14 14:54:45;;;;;;;;;;;;;;;;;;4914456;29;20016;-88
2023/01/14 14:57:22;;;;;;;;;;;;;;;;;;4919210;29;19929;-87
2023/01/14 14:59:48;;;;;;;;;;;;;;;;;;4920453;29;19942;-95
2023/01/14 15:02:20;;;;;;;;;;;;;;;;;;4921078;29;20029;-90
2023/01/14 15:04:46;;;;;;;;;;;;;;;;;;4920302;29;19915;-89
2023/01/14 15:07:12;;;;;;;;;;;;;;;;;;4918150;29;19930;-88
2023/01/14 15:09:38;;;;;;;;;;;;;;;;;;4921819;29;20067;-90
2023/01/14 15:12:05;;;;;;;;;;;;;;;;;;4920460;29;20076;-89
2023/01/14 15:14:32;;;;;;;;;;;;;;;;;;4920218;29;20383;-88
2023/01/14 15:16:58;;;;;;;;;;;;;;;;;;4921443;29;19926;-88
2023/01/14 15:19:24;;;;;;;;;;;;;;;;;;4920120;29;19919;-87
2023/01/14 15:21:50;;;;;;;;;;;;;;;;;;4919943;29;20010;-87
2023/01/14 15:24:17;;;;;;;;;;;;;;;;;;4919866;29;19966;-89
2023/01/14 15:26:43;;;;;;;;;;;;;;;;;;4920278;29;19961;-91
2023/01/14 15:29:21;;;;;;;;;;;;;;;;;;4921569;29;19919;-89
2023/01/14 15:31:46;;;;;;;;;;;;;;;;;;4921060;29;20370;-88
2023/01/14 15:34:14;;;;;;;;;;;;;;;;;;4921242;29;19966;-85
2023/01/14 15:36:41;;;;;;;;;;;;;;;;;;4923612;29;19923;-85
2023/01/14 15:39:10;;;;;;;;;;;;;;;;;;4920565;29;20389;-85
2023/01/14 15:41:36;;;;;;;;;;;;;;;;;;4920701;29;19919;-87
2023/01/14 15:44:03;;;;;;;;;;;;;;;;;;4920813;29;19922;-85
2023/01/14 15:46:28;;;;;;;;;;;;;;;;;;4920962;29;19919;-87
2023/01/14 15:48:54;;;;;;;;;;;;;;;;;;4921040;29;20021;-87
2023/01/14 15:51:19;;;;;;;;;;;;;;;;;;4920600;29;20335;-87
2023/01/14 18:03:56;;;;;;;;;;;;;;;;;;4903058;29;19923;-96
2023/01/14 18:06:25;;;;;;;;;;;;;;;;;;4920320;29;20034;-96
2023/01/14 18:08:51;;;;;;;;;;;;;;;;;;4923833;29;19919;-94
2023/01/14 18:11:17;;;;;;;;;;;;;;;;;;4922159;29;19954;-93
2023/01/14 18:13:43;;;;;;;;;;;;;;;;;;4921367;29;19958;-95
2023/01/14 18:16:08;;;;;;;;;;;;;;;;;;4924884;29;19919;-93
2023/01/14 18:18:34;;;;;;;;;;;;;;;;;;4918706;29;20005;-92
2023/01/14 18:21:26;;;;;;;;;;;;;;;;;;4921023;29;20354;-94
2023/01/14 18:23:51;;;;;;;;;;;;;;;;;;4920596;29;20009;-92
2023/01/14 18:26:24;;;;;;;;;;;;;;;;;;4919619;29;19969;-95
2023/01/14 18:28:55;;;;;;;;;;;;;;;;;;4917195;29;20299;-94
2023/01/14 18:31:21;;;;;;;;;;;;;;;;;;4918427;29;20014;-90
2023/01/14 18:33:48;;;;;;;;;;;;;;;;;;4917574;29;19966;-92
2023/01/14 18:36:13;;;;;;;;;;;;;;;;;;4917346;29;19919;-92
2023/01/14 18:38:39;;;;;;;;;;;;;;;;;;4918284;29;20325;-89
2023/01/14 18:41:05;;;;;;;;;;;;;;;;;;4918255;29;19915;-93
2023/01/14 18:43:30;;;;;;;;;;;;;;;;;;4917187;29;19919;-93
2023/01/14 18:45:55;;;;;;;;;;;;;;;;;;4917568;29;19915;-94
2023/01/14 18:48:23;;;;;;;;;;;;;;;;;;4918949;29;19919;-94
2023/01/14 18:53:24;;;;;;;;;;;;;;;;;;4986088;23;19931;-96
2023/01/14 18:56:10;;;;;;;;;;;;;;;;;;4924160;29;19944;-96
2023/01/14 18:58:43;;;;;;;;;;;;;;;;;;4919345;29;19923;-96
2023/01/14 19:01:13;;;;;;;;;;;;;;;;;;4920386;29;19955;-90
2023/01/14 19:03:39;;;;;;;;;;;;;;;;;;4919545;29;19930;-90
2023/01/14 19:06:05;;;;;;;;;;;;;;;;;;4924125;29;20013;-94
2023/01/14 19:08:34;;;;;;;;;;;;;;;;;;4919816;29;19961;-89
2023/01/14 19:13:55;;;;;;;;;;;;;;;;;;4921581;29;20018;-93
2023/01/14 19:16:21;;;;;;;;;;;;;;;;;;4922119;29;19955;-95
2023/01/14 19:18:47;;;;;;;;;;;;;;;;;;4919576;29;20442;-96
2023/01/14 19:21:12;;;;;;;;;;;;;;;;;;4920480;29;20282;-96
2023/01/14 19:23:41;;;;;;;;;;;;;;;;;;4920323;29;20393;-96
2023/01/14 19:26:12;;;;;;;;;;;;;;;;;;4919401;29;19919;-94
2023/01/14 19:28:39;;;;;;;;;;;;;;;;;;4919564;29;19919;-95
2023/01/14 19:31:06;;;;;;;;;;;;;;;;;;4917568;29;19967;-94
2023/01/14 19:33:31;;;;;;;;;;;;;;;;;;4917232;29;19919;-91
2023/01/14 19:36:01;;;;;;;;;;;;;;;;;;4918063;29;19923;-91
2023/01/14 19:38:26;;;;;;;;;;;;;;;;;;4917590;29;19919;-92
2023/01/14 19:40:52;;;;;;;;;;;;;;;;;;4917263;29;20378;-92
2023/01/14 19:43:17;;;;;;;;;;;;;;;;;;4918610;29;19939;-91
2023/01/14 19:45:43;;;;;;;;;;;;;;;;;;4920718;29;19919;-94
2023/01/14 19:48:09;;;;;;;;;;;;;;;;;;4922403;29;19926;-91
2023/01/14 19:50:34;;;;;;;;;;;;;;;;;;4920631;29;19920;-91
2023/01/14 19:52:59;;;;;;;;;;;;;;;;;;4920518;29;20002;-91
2023/01/14 19:55:24;;;;;;;;;;;;;;;;;;4919954;29;20014;-92
2023/01/14 19:57:50;;;;;;;;;;;;;;;;;;4919787;29;19933;-91
2023/01/14 20:00:15;;;;;;;;;;;;;;;;;;4919838;29;19922;-92
2023/01/14 20:02:41;;;;;;;;;;;;;;;;;;4919935;29;20361;-93
2023/01/14 20:05:07;;;;;;;;;;;;;;;;;;4920398;29;19974;-93
2023/01/14 20:07:33;;;;;;;;;;;;;;;;;;4919976;29;19915;-96
2023/01/14 20:09:58;;;;;;;;;;;;;;;;;;4919983;29;19930;-96
2023/01/14 20:12:24;;;;;;;;;;;;;;;;;;4920154;29;19970;-94
2023/01/14 20:14:49;;;;;;;;;;;;;;;;;;4920599;29;19974;-91
2023/01/14 20:17:14;;;;;;;;;;;;;;;;;;4919863;29;19919;-93
2023/01/14 20:19:40;;;;;;;;;;;;;;;;;;4920086;29;19915;-92
2023/01/14 20:22:05;;;;;;;;;;;;;;;;;;4919822;29;19919;-94
2023/01/14 20:24:31;;;;;;;;;;;;;;;;;;4920698;29;19915;-89
2023/01/14 20:26:56;;;;;;;;;;;;;;;;;;4920513;29;19919;-92
2023/01/14 20:29:21;;;;;;;;;;;;;;;;;;4920319;29;19959;-88
2023/01/14 20:31:47;;;;;;;;;;;;;;;;;;4919310;29;19930;-94
2023/01/14 20:34:13;;;;;;;;;;;;;;;;;;4920353;29;19919;-90
2023/01/14 20:36:38;;;;;;;;;;;;;;;;;;4920253;29;20018;-86
2023/01/14 20:39:03;;;;;;;;;;;;;;;;;;4919324;29;19966;-87
2023/01/14 20:42:14;;;;;;;;;;;;;;;;;;4920257;29;20389;-87
2023/01/14 20:44:58;;;;;;;;;;;;;;;;;;4919871;29;19919;-87
2023/01/14 20:47:02;;;;;;;;;;;;;;;;;;4917235;29;19948;-92
2023/01/14 20:49:28;;;;;;;;;;;;;;;;;;4920153;29;19926;-86
2023/01/14 20:51:53;;;;;;;;;;;;;;;;;;4920019;29;19923;-91
2023/01/14 20:54:18;;;;;;;;;;;;;;;;;;4918675;29;20022;-85
2023/01/14 20:56:44;;;;;;;;;;;;;;;;;;4920126;29;19919;-85
2023/01/14 21:01:35;;;;;;;;;;;;;;;;;;4920052;29;19930;-91
2023/01/14 21:04:00;;;;;;;;;;;;;;;;;;4919491;29;20443;-85
2023/01/14 21:06:26;;;;;;;;;;;;;;;;;;4920118;29;19966;-86
2023/01/14 21:08:52;;;;;;;;;;;;;;;;;;4919723;29;19974;-88
2023/01/14 21:11:18;;;;;;;;;;;;;;;;;;4919653;29;20031;-88
2023/01/14 21:24:46;;;;;;;;;;;;;;;;;;4919428;29;19927;-85
2023/01/14 21:27:11;;;;;;;;;;;;;;;;;;4919477;29;19919;-85
2023/01/14 21:29:37;;;;;;;;;;;;;;;;;;4919103;29;19919;-90
2023/01/14 21:32:02;;;;;;;;;;;;;;;;;;4919200;29;19919;-88
2023/01/14 21:34:27;;;;;;;;;;;;;;;;;;4919043;29;19923;-85
2023/01/14 21:36:53;;;;;;;;;;;;;;;;;;4919429;29;20021;-90
2023/01/14 21:39:18;;;;;;;;;;;;;;;;;;4917850;29;20315;-89
2023/01/14 21:44:28;;;;;;;;;;;;;;;;;;4919059;29;19974;-90
2023/01/14 21:46:53;;;;;;;;;;;;;;;;;;4918941;29;19923;-84
2023/01/14 21:49:19;;;;;;;;;;;;;;;;;;4918876;29;19919;-86
2023/01/14 21:51:45;;;;;;;;;;;;;;;;;;4918976;29;20454;-91
2023/01/14 21:54:10;;;;;;;;;;;;;;;;;;4918414;29;19927;-86
2023/01/14 21:56:36;;;;;;;;;;;;;;;;;;4918670;29;20274;-91
2023/01/14 21:59:03;;;;;;;;;;;;;;;;;;4918824;29;19926;-86
2023/01/14 22:01:29;;;;;;;;;;;;;;;;;;4918672;29;19920;-84
2023/01/14 22:03:55;;;;;;;;;;;;;;;;;;4918280;29;19950;-85
2023/01/14 22:06:21;;;;;;;;;;;;;;;;;;4918051;29;19923;-87
2023/01/14 22:08:46;;;;;;;;;;;;;;;;;;4918591;29;19919;-92
2023/01/14 22:11:16;;;;;;;;;;;;;;;;;;4918788;29;20013;-88
2023/01/14 22:13:41;;;;;;;;;;;;;;;;;;4916874;29;20271;-91
2023/01/14 22:16:07;;;;;;;;;;;;;;;;;;4918352;29;19926;-91
2023/01/14 22:18:32;;;;;;;;;;;;;;;;;;4918302;29;19919;-90
2023/01/14 22:20:58;;;;;;;;;;;;;;;;;;4918599;29;19923;-89
2023/01/14 22:23:24;;;;;;;;;;;;;;;;;;4918175;29;19919;-90
2023/01/14 22:25:50;;;;;;;;;;;;;;;;;;4918449;29;19930;-85
2023/01/14 22:28:15;;;;;;;;;;;;;;;;;;4918433;29;19926;-86
2023/01/14 22:30:40;;;;;;;;;;;;;;;;;;4918397;29;20401;-90
2023/01/14 22:33:05;;;;;;;;;;;;;;;;;;4916937;29;20021;-91
2023/01/14 22:35:31;;;;;;;;;;;;;;;;;;4918235;29;19991;-91
2023/01/14 22:37:57;;;;;;;;;;;;;;;;;;4918541;29;19919;-91
2023/01/14 22:40:22;;;;;;;;;;;;;;;;;;4916924;29;19927;-92
2023/01/14 22:42:48;;;;;;;;;;;;;;;;;;4916874;29;20326;-91
2023/01/14 22:45:13;;;;;;;;;;;;;;;;;;4917627;29;20010;-92
2023/01/14 22:47:38;;;;;;;;;;;;;;;;;;4917810;29;20013;-90
2023/01/14 22:50:04;;;;;;;;;;;;;;;;;;4916783;29;19967;-90
2023/01/14 22:52:29;;;;;;;;;;;;;;;;;;4916612;29;19953;-89
2023/01/14 22:54:55;;;;;;;;;;;;;;;;;;4918136;29;19943;-91
2023/01/14 22:57:20;;;;;;;;;;;;;;;;;;4916881;29;19975;-92
2023/01/14 22:59:48;;;;;;;;;;;;;;;;;;4916969;29;20017;-91
2023/01/14 23:02:15;;;;;;;;;;;;;;;;;;4919275;29;20406;-94
2023/01/14 23:04:43;;;;;;;;;;;;;;;;;;4921205;29;20025;-96
2023/01/14 23:07:08;;;;;;;;;;;;;;;;;;4919867;29;19923;-92
2023/01/14 23:09:34;;;;;;;;;;;;;;;;;;4918742;29;20385;-91
